Terminal Aerodrome Forecast
Issued by NWS Melbourne, FL

Home | Current Version | Previous Version | Text Only | Print | Product List | Glossary On
Versions: 1 2 3 4 5 6 7 8 9 10 11 12 13 14 15
000
FTUS42 KMLB 031140
TAFDAB
TAF
KDAB 031140Z 0312/0412 18009KT P6SM FEW080 BKN250
     FM031400 21011KT P6SM SCT030 BKN080 OVC250
      TEMPO 0316/0318 3SM SHRA BKN025
     FM031800 23012G20KT P6SM VCTS SCT030CB BKN080
      TEMPO 0318/0321 3SM TSRA BKN020CB OVC040
     FM032200 25009KT P6SM SCT040 OVC080
      TEMPO 0322/0324 5SM SHRA BKN025
     FM040100 22009KT P6SM VCSH SCT030 OVC100
     FM040600 21006KT P6SM SCT100 BKN250=

USA.gov is the U.S. government's official web portal to all federal, state and local government web resources and services.